sensor_id;sensor_type;location;lat;lon;timestamp;P1;durP1;ratioP1;P2;durP2;ratioP2
8044;SDS011;4065;48.754;9.982;2023-02-28T00:01:13;7.47;;;6.57;;
8044;SDS011;4065;48.754;9.982;2023-02-28T00:04:37;10.18;;;6.63;;
8044;SDS011;4065;48.754;9.982;2023-02-28T00:07:59;8.15;;;6.75;;
8044;SDS011;4065;48.754;9.982;2023-02-28T00:11:21;8.57;;;6.63;;
8044;SDS011;4065;48.754;9.982;2023-02-28T00:14:43;7.78;;;6.40;;
8044;SDS011;4065;48.754;9.982;2023-02-28T00:18:04;8.15;;;6.80;;
8044;SDS011;4065;48.754;9.982;2023-02-28T00:21:28;7.90;;;6.68;;
8044;SDS011;4065;48.754;9.982;2023-02-28T00:24:50;8.25;;;7.50;;
8044;SDS011;4065;48.754;9.982;2023-02-28T00:28:12;8.98;;;6.53;;
8044;SDS011;4065;48.754;9.982;2023-02-28T00:31:33;8.35;;;6.47;;
8044;SDS011;4065;48.754;9.982;2023-02-28T00:34:55;7.05;;;6.15;;
8044;SDS011;4065;48.754;9.982;2023-02-28T00:38:19;9.43;;;7.20;;
8044;SDS011;4065;48.754;9.982;2023-02-28T00:41:40;9.02;;;7.95;;
8044;SDS011;4065;48.754;9.982;2023-02-28T00:45:02;9.88;;;7.88;;
8044;SDS011;4065;48.754;9.982;2023-02-28T00:48:25;7.45;;;6.78;;
8044;SDS011;4065;48.754;9.982;2023-02-28T00:51:47;8.05;;;7.10;;
8044;SDS011;4065;48.754;9.982;2023-02-28T00:55:11;9.75;;;7.63;;
8044;SDS011;4065;48.754;9.982;2023-02-28T00:58:33;9.20;;;8.20;;
8044;SDS011;4065;48.754;9.982;2023-02-28T01:01:54;7.68;;;6.93;;
8044;SDS011;4065;48.754;9.982;2023-02-28T01:05:16;7.85;;;7.05;;
8044;SDS011;4065;48.754;9.982;2023-02-28T01:08:39;7.13;;;6.53;;
8044;SDS011;4065;48.754;9.982;2023-02-28T01:12:02;9.20;;;8.30;;
8044;SDS011;4065;48.754;9.982;2023-02-28T01:15:25;8.07;;;7.28;;
8044;SDS011;4065;48.754;9.982;2023-02-28T01:18:47;9.23;;;8.20;;
8044;SDS011;4065;48.754;9.982;2023-02-28T01:22:09;8.35;;;7.55;;
8044;SDS011;4065;48.754;9.982;2023-02-28T01:25:31;11.18;;;10.10;;
8044;SDS011;4065;48.754;9.982;2023-02-28T01:28:57;9.25;;;8.25;;
8044;SDS011;4065;48.754;9.982;2023-02-28T01:32:18;7.63;;;6.90;;
8044;SDS011;4065;48.754;9.982;2023-02-28T01:35:40;8.85;;;8.05;;
8044;SDS011;4065;48.754;9.982;2023-02-28T01:39:02;8.95;;;7.05;;
8044;SDS011;4065;48.754;9.982;2023-02-28T01:42:25;8.43;;;7.63;;
8044;SDS011;4065;48.754;9.982;2023-02-28T01:45:48;10.32;;;8.13;;
8044;SDS011;4065;48.754;9.982;2023-02-28T01:49:11;8.90;;;7.28;;
8044;SDS011;4065;48.754;9.982;2023-02-28T01:52:35;10.73;;;8.32;;
8044;SDS011;4065;48.754;9.982;2023-02-28T01:55:57;11.30;;;8.30;;
8044;SDS011;4065;48.754;9.982;2023-02-28T01:59:21;10.70;;;8.35;;
8044;SDS011;4065;48.754;9.982;2023-02-28T02:02:46;9.48;;;8.48;;
8044;SDS011;4065;48.754;9.982;2023-02-28T02:06:09;9.13;;;8.15;;
8044;SDS011;4065;48.754;9.982;2023-02-28T02:09:31;9.77;;;8.77;;
8044;SDS011;4065;48.754;9.982;2023-02-28T02:13:00;10.38;;;8.10;;
8044;SDS011;4065;48.754;9.982;2023-02-28T02:16:45;10.25;;;8.20;;
8044;SDS011;4065;48.754;9.982;2023-02-28T02:20:32;10.90;;;8.85;;
8044;SDS011;4065;48.754;9.982;2023-02-28T02:28:22;10.10;;;7.63;;
8044;SDS011;4065;48.754;9.982;2023-02-28T02:32:09;9.18;;;7.70;;
8044;SDS011;4065;48.754;9.982;2023-02-28T02:35:55;8.50;;;7.72;;
8044;SDS011;4065;48.754;9.982;2023-02-28T02:39:19;9.35;;;8.43;;
8044;SDS011;4065;48.754;9.982;2023-02-28T02:42:50;10.30;;;9.20;;
8044;SDS011;4065;48.754;9.982;2023-02-28T02:46:18;11.73;;;9.40;;
8044;SDS011;4065;48.754;9.982;2023-02-28T02:49:43;9.43;;;8.52;;
8044;SDS011;4065;48.754;9.982;2023-02-28T02:53:09;10.65;;;9.65;;
8044;SDS011;4065;48.754;9.982;2023-02-28T02:56:32;12.82;;;9.10;;
8044;SDS011;4065;48.754;9.982;2023-02-28T02:59:55;13.70;;;9.20;;
8044;SDS011;4065;48.754;9.982;2023-02-28T03:03:18;10.27;;;9.23;;
8044;SDS011;4065;48.754;9.982;2023-02-28T03:06:50;10.23;;;9.23;;
8044;SDS011;4065;48.754;9.982;2023-02-28T03:10:36;10.00;;;9.05;;
8044;SDS011;4065;48.754;9.982;2023-02-28T03:14:08;13.48;;;10.82;;
8044;SDS011;4065;48.754;9.982;2023-02-28T03:17:47;10.93;;;9.82;;
8044;SDS011;4065;48.754;9.982;2023-02-28T03:21:18;13.85;;;9.95;;
8044;SDS011;4065;48.754;9.982;2023-02-28T03:24:43;10.40;;;9.25;;
8044;SDS011;4065;48.754;9.982;2023-02-28T03:28:13;11.80;;;10.70;;
8044;SDS011;4065;48.754;9.982;2023-02-28T03:31:37;13.00;;;9.20;;
8044;SDS011;4065;48.754;9.982;2023-02-28T03:35:02;11.98;;;10.75;;
8044;SDS011;4065;48.754;9.982;2023-02-28T03:38:31;13.65;;;11.23;;
8044;SDS011;4065;48.754;9.982;2023-02-28T03:41:57;11.90;;;10.77;;
8044;SDS011;4065;48.754;9.982;2023-02-28T03:45:23;11.68;;;10.52;;
8044;SDS011;4065;48.754;9.982;2023-02-28T03:48:48;12.93;;;11.02;;
8044;SDS011;4065;48.754;9.982;2023-02-28T03:52:12;14.45;;;11.43;;
8044;SDS011;4065;48.754;9.982;2023-02-28T03:55:37;12.63;;;11.25;;
8044;SDS011;4065;48.754;9.982;2023-02-28T03:59:02;18.77;;;14.88;;
8044;SDS011;4065;48.754;9.982;2023-02-28T04:02:29;14.38;;;10.35;;
8044;SDS011;4065;48.754;9.982;2023-02-28T04:05:52;12.60;;;10.10;;
8044;SDS011;4065;48.754;9.982;2023-02-28T04:09:14;12.30;;;10.77;;
8044;SDS011;4065;48.754;9.982;2023-02-28T04:12:36;14.05;;;11.70;;
8044;SDS011;4065;48.754;9.982;2023-02-28T04:15:58;16.92;;;11.40;;
8044;SDS011;4065;48.754;9.982;2023-02-28T04:19:21;14.18;;;11.05;;
8044;SDS011;4065;48.754;9.982;2023-02-28T04:22:43;13.95;;;11.50;;
8044;SDS011;4065;48.754;9.982;2023-02-28T04:26:05;16.25;;;11.93;;
8044;SDS011;4065;48.754;9.982;2023-02-28T04:29:28;13.07;;;11.13;;
8044;SDS011;4065;48.754;9.982;2023-02-28T04:32:51;13.07;;;11.50;;
8044;SDS011;4065;48.754;9.982;2023-02-28T04:36:14;13.15;;;11.73;;
8044;SDS011;4065;48.754;9.982;2023-02-28T04:39:38;14.48;;;12.43;;
8044;SDS011;4065;48.754;9.982;2023-02-28T04:43:00;13.95;;;11.70;;
8044;SDS011;4065;48.754;9.982;2023-02-28T04:46:22;13.88;;;12.10;;
8044;SDS011;4065;48.754;9.982;2023-02-28T04:49:44;12.85;;;11.45;;
8044;SDS011;4065;48.754;9.982;2023-02-28T04:53:07;17.50;;;12.95;;
8044;SDS011;4065;48.754;9.982;2023-02-28T04:56:29;14.75;;;12.73;;
8044;SDS011;4065;48.754;9.982;2023-02-28T04:59:51;14.00;;;12.15;;
8044;SDS011;4065;48.754;9.982;2023-02-28T05:03:13;15.27;;;12.48;;
8044;SDS011;4065;48.754;9.982;2023-02-28T05:06:35;16.33;;;12.98;;
8044;SDS011;4065;48.754;9.982;2023-02-28T05:09:58;16.25;;;13.93;;
8044;SDS011;4065;48.754;9.982;2023-02-28T05:13:20;15.98;;;12.02;;
8044;SDS011;4065;48.754;9.982;2023-02-28T05:16:43;14.52;;;12.55;;
8044;SDS011;4065;48.754;9.982;2023-02-28T05:20:05;14.65;;;12.43;;
8044;SDS011;4065;48.754;9.982;2023-02-28T05:23:31;17.40;;;13.20;;
8044;SDS011;4065;48.754;9.982;2023-02-28T05:26:54;16.90;;;12.55;;
8044;SDS011;4065;48.754;9.982;2023-02-28T05:30:16;14.02;;;12.10;;
8044;SDS011;4065;48.754;9.982;2023-02-28T05:33:38;18.00;;;13.82;;
8044;SDS011;4065;48.754;9.982;2023-02-28T05:37:00;16.73;;;12.43;;
8044;SDS011;4065;48.754;9.982;2023-02-28T05:40:22;16.60;;;13.88;;
8044;SDS011;4065;48.754;9.982;2023-02-28T05:43:46;17.70;;;13.90;;
8044;SDS011;4065;48.754;9.982;2023-02-28T05:47:08;17.20;;;13.77;;
8044;SDS011;4065;48.754;9.982;2023-02-28T05:50:30;18.48;;;14.05;;
8044;SDS011;4065;48.754;9.982;2023-02-28T05:53:52;18.50;;;13.57;;
8044;SDS011;4065;48.754;9.982;2023-02-28T05:57:13;18.30;;;14.55;;
8044;SDS011;4065;48.754;9.982;2023-02-28T06:00:37;16.65;;;13.40;;
8044;SDS011;4065;48.754;9.982;2023-02-28T06:04:01;17.15;;;14.35;;
8044;SDS011;4065;48.754;9.982;2023-02-28T06:07:24;18.98;;;15.43;;
8044;SDS011;4065;48.754;9.982;2023-02-28T06:10:46;17.23;;;14.43;;
8044;SDS011;4065;48.754;9.982;2023-02-28T06:14:10;16.75;;;13.02;;
8044;SDS011;4065;48.754;9.982;2023-02-28T06:17:37;17.02;;;14.00;;
8044;SDS011;4065;48.754;9.982;2023-02-28T06:20:59;17.75;;;13.75;;
8044;SDS011;4065;48.754;9.982;2023-02-28T06:24:22;18.67;;;13.85;;
8044;SDS011;4065;48.754;9.982;2023-02-28T06:27:45;17.13;;;14.95;;
8044;SDS011;4065;48.754;9.982;2023-02-28T06:31:07;22.25;;;16.17;;
8044;SDS011;4065;48.754;9.982;2023-02-28T06:34:31;17.25;;;13.57;;
8044;SDS011;4065;48.754;9.982;2023-02-28T06:37:54;18.00;;;14.90;;
8044;SDS011;4065;48.754;9.982;2023-02-28T06:41:18;17.90;;;14.63;;
8044;SDS011;4065;48.754;9.982;2023-02-28T06:44:40;16.88;;;14.10;;
8044;SDS011;4065;48.754;9.982;2023-02-28T06:48:04;17.90;;;15.02;;
8044;SDS011;4065;48.754;9.982;2023-02-28T06:51:30;19.38;;;13.82;;
8044;SDS011;4065;48.754;9.982;2023-02-28T06:54:52;19.23;;;13.25;;
8044;SDS011;4065;48.754;9.982;2023-02-28T06:58:20;18.88;;;13.32;;
8044;SDS011;4065;48.754;9.982;2023-02-28T07:01:42;17.67;;;15.23;;
8044;SDS011;4065;48.754;9.982;2023-02-28T07:05:04;17.42;;;14.25;;
8044;SDS011;4065;48.754;9.982;2023-02-28T07:08:27;22.35;;;15.82;;
8044;SDS011;4065;48.754;9.982;2023-02-28T07:11:51;17.73;;;14.50;;
8044;SDS011;4065;48.754;9.982;2023-02-28T07:15:13;18.02;;;14.07;;
8044;SDS011;4065;48.754;9.982;2023-02-28T07:18:36;20.08;;;14.25;;
8044;SDS011;4065;48.754;9.982;2023-02-28T07:21:58;23.02;;;16.42;;
8044;SDS011;4065;48.754;9.982;2023-02-28T07:25:22;20.17;;;15.93;;
8044;SDS011;4065;48.754;9.982;2023-02-28T07:28:45;20.25;;;14.25;;
8044;SDS011;4065;48.754;9.982;2023-02-28T07:32:08;18.00;;;14.65;;
8044;SDS011;4065;48.754;9.982;2023-02-28T07:35:32;18.52;;;14.40;;
8044;SDS011;4065;48.754;9.982;2023-02-28T07:38:54;18.25;;;14.27;;
8044;SDS011;4065;48.754;9.982;2023-02-28T07:42:17;18.90;;;14.93;;
8044;SDS011;4065;48.754;9.982;2023-02-28T07:45:42;18.55;;;14.25;;
8044;SDS011;4065;48.754;9.982;2023-02-28T07:49:05;20.25;;;13.02;;
8044;SDS011;4065;48.754;9.982;2023-02-28T07:52:30;20.50;;;14.57;;
8044;SDS011;4065;48.754;9.982;2023-02-28T07:55:54;24.98;;;14.15;;
8044;SDS011;4065;48.754;9.982;2023-02-28T07:59:18;19.23;;;13.95;;
8044;SDS011;4065;48.754;9.982;2023-02-28T08:02:40;20.00;;;14.50;;
8044;SDS011;4065;48.754;9.982;2023-02-28T08:06:02;18.48;;;13.25;;
8044;SDS011;4065;48.754;9.982;2023-02-28T08:09:24;19.15;;;15.50;;
8044;SDS011;4065;48.754;9.982;2023-02-28T08:12:46;22.00;;;15.25;;
8044;SDS011;4065;48.754;9.982;2023-02-28T08:16:10;19.98;;;14.60;;
8044;SDS011;4065;48.754;9.982;2023-02-28T08:19:32;18.55;;;13.82;;
8044;SDS011;4065;48.754;9.982;2023-02-28T08:22:54;20.65;;;14.82;;
8044;SDS011;4065;48.754;9.982;2023-02-28T08:26:16;17.23;;;14.07;;
8044;SDS011;4065;48.754;9.982;2023-02-28T08:29:38;17.20;;;14.27;;
8044;SDS011;4065;48.754;9.982;2023-02-28T08:33:02;19.60;;;15.57;;
8044;SDS011;4065;48.754;9.982;2023-02-28T08:36:24;28.67;;;19.23;;
8044;SDS011;4065;48.754;9.982;2023-02-28T08:39:46;15.32;;;13.05;;
8044;SDS011;4065;48.754;9.982;2023-02-28T08:43:08;17.90;;;14.05;;
8044;SDS011;4065;48.754;9.982;2023-02-28T08:46:30;16.65;;;13.90;;
8044;SDS011;4065;48.754;9.982;2023-02-28T08:49:54;18.38;;;14.55;;
8044;SDS011;4065;48.754;9.982;2023-02-28T08:53:16;16.88;;;13.70;;
8044;SDS011;4065;48.754;9.982;2023-02-28T08:56:38;18.33;;;14.32;;
8044;SDS011;4065;48.754;9.982;2023-02-28T09:00:04;16.00;;;13.52;;
8044;SDS011;4065;48.754;9.982;2023-02-28T09:03:27;18.33;;;13.93;;
8044;SDS011;4065;48.754;9.982;2023-02-28T09:06:51;18.63;;;13.88;;
8044;SDS011;4065;48.754;9.982;2023-02-28T09:10:13;16.35;;;14.13;;
8044;SDS011;4065;48.754;9.982;2023-02-28T09:13:35;16.05;;;13.60;;
8044;SDS011;4065;48.754;9.982;2023-02-28T09:16:58;18.08;;;14.65;;
8044;SDS011;4065;48.754;9.982;2023-02-28T09:20:19;18.92;;;13.00;;
8044;SDS011;4065;48.754;9.982;2023-02-28T09:23:43;18.73;;;13.90;;
8044;SDS011;4065;48.754;9.982;2023-02-28T09:27:06;22.00;;;15.25;;
8044;SDS011;4065;48.754;9.982;2023-02-28T09:30:28;16.92;;;14.23;;
8044;SDS011;4065;48.754;9.982;2023-02-28T09:33:50;19.05;;;14.73;;
8044;SDS011;4065;48.754;9.982;2023-02-28T09:37:13;15.43;;;13.77;;
8044;SDS011;4065;48.754;9.982;2023-02-28T09:40:37;20.88;;;14.93;;
8044;SDS011;4065;48.754;9.982;2023-02-28T09:44:01;18.30;;;14.93;;
8044;SDS011;4065;48.754;9.982;2023-02-28T09:47:26;21.05;;;14.38;;
8044;SDS011;4065;48.754;9.982;2023-02-28T09:50:51;21.40;;;15.60;;
8044;SDS011;4065;48.754;9.982;2023-02-28T09:54:15;16.30;;;13.95;;
8044;SDS011;4065;48.754;9.982;2023-02-28T09:57:40;17.42;;;13.77;;
8044;SDS011;4065;48.754;9.982;2023-02-28T10:01:03;24.38;;;15.27;;
8044;SDS011;4065;48.754;9.982;2023-02-28T10:04:35;21.15;;;15.25;;
8044;SDS011;4065;48.754;9.982;2023-02-28T10:08:05;19.08;;;15.20;;
8044;SDS011;4065;48.754;9.982;2023-02-28T10:11:33;19.33;;;14.93;;
8044;SDS011;4065;48.754;9.982;2023-02-28T10:14:59;19.20;;;15.40;;
8044;SDS011;4065;48.754;9.982;2023-02-28T10:18:25;19.13;;;15.30;;
8044;SDS011;4065;48.754;9.982;2023-02-28T10:21:50;19.33;;;13.93;;
8044;SDS011;4065;48.754;9.982;2023-02-28T10:25:17;17.52;;;15.27;;
8044;SDS011;4065;48.754;9.982;2023-02-28T10:28:40;19.25;;;15.13;;
8044;SDS011;4065;48.754;9.982;2023-02-28T10:32:05;18.30;;;14.68;;
8044;SDS011;4065;48.754;9.982;2023-02-28T10:35:26;19.35;;;14.45;;
8044;SDS011;4065;48.754;9.982;2023-02-28T10:38:49;20.13;;;13.95;;
8044;SDS011;4065;48.754;9.982;2023-02-28T10:42:22;17.95;;;14.15;;
8044;SDS011;4065;48.754;9.982;2023-02-28T10:45:53;17.83;;;13.80;;
8044;SDS011;4065;48.754;9.982;2023-02-28T10:49:21;17.65;;;13.95;;
8044;SDS011;4065;48.754;9.982;2023-02-28T10:52:43;16.92;;;13.43;;
8044;SDS011;4065;48.754;9.982;2023-02-28T10:56:12;16.20;;;13.40;;
8044;SDS011;4065;48.754;9.982;2023-02-28T10:59:39;17.52;;;13.75;;
8044;SDS011;4065;48.754;9.982;2023-02-28T11:03:01;18.33;;;14.52;;
8044;SDS011;4065;48.754;9.982;2023-02-28T11:06:25;17.35;;;14.52;;
8044;SDS011;4065;48.754;9.982;2023-02-28T11:09:49;17.23;;;13.35;;
8044;SDS011;4065;48.754;9.982;2023-02-28T11:13:15;14.00;;;11.45;;
8044;SDS011;4065;48.754;9.982;2023-02-28T11:16:39;16.10;;;13.07;;
8044;SDS011;4065;48.754;9.982;2023-02-28T11:20:02;16.10;;;12.27;;
8044;SDS011;4065;48.754;9.982;2023-02-28T11:23:29;15.43;;;12.30;;
8044;SDS011;4065;48.754;9.982;2023-02-28T11:26:53;20.92;;;13.57;;
8044;SDS011;4065;48.754;9.982;2023-02-28T11:30:26;17.88;;;13.20;;
8044;SDS011;4065;48.754;9.982;2023-02-28T11:33:50;17.42;;;12.68;;
8044;SDS011;4065;48.754;9.982;2023-02-28T11:37:15;17.27;;;12.23;;
8044;SDS011;4065;48.754;9.982;2023-02-28T11:40:45;18.50;;;13.48;;
8044;SDS011;4065;48.754;9.982;2023-02-28T11:44:16;15.57;;;12.60;;
8044;SDS011;4065;48.754;9.982;2023-02-28T11:47:47;18.25;;;13.68;;
8044;SDS011;4065;48.754;9.982;2023-02-28T11:51:13;18.20;;;12.15;;
8044;SDS011;4065;48.754;9.982;2023-02-28T11:54:46;17.83;;;13.05;;
8044;SDS011;4065;48.754;9.982;2023-02-28T11:58:29;13.65;;;11.57;;
8044;SDS011;4065;48.754;9.982;2023-02-28T12:02:02;16.48;;;12.00;;
8044;SDS011;4065;48.754;9.982;2023-02-28T12:05:29;15.45;;;11.93;;
8044;SDS011;4065;48.754;9.982;2023-02-28T12:09:01;12.88;;;11.32;;
8044;SDS011;4065;48.754;9.982;2023-02-28T12:12:30;14.45;;;11.88;;
8044;SDS011;4065;48.754;9.982;2023-02-28T12:16:04;16.75;;;12.15;;
8044;SDS011;4065;48.754;9.982;2023-02-28T12:19:38;13.55;;;12.13;;
8044;SDS011;4065;48.754;9.982;2023-02-28T12:23:10;14.30;;;11.60;;
8044;SDS011;4065;48.754;9.982;2023-02-28T12:26:43;13.85;;;11.90;;
8044;SDS011;4065;48.754;9.982;2023-02-28T12:30:13;14.35;;;11.88;;
8044;SDS011;4065;48.754;9.982;2023-02-28T12:33:42;13.55;;;11.25;;
8044;SDS011;4065;48.754;9.982;2023-02-28T12:37:07;14.50;;;11.70;;
8044;SDS011;4065;48.754;9.982;2023-02-28T12:40:43;13.60;;;12.05;;
8044;SDS011;4065;48.754;9.982;2023-02-28T12:44:09;14.57;;;12.27;;
8044;SDS011;4065;48.754;9.982;2023-02-28T12:47:33;16.55;;;12.30;;
8044;SDS011;4065;48.754;9.982;2023-02-28T12:50:57;15.57;;;11.63;;
8044;SDS011;4065;48.754;9.982;2023-02-28T12:54:20;14.85;;;12.98;;
8044;SDS011;4065;48.754;9.982;2023-02-28T12:57:46;15.18;;;12.15;;
8044;SDS011;4065;48.754;9.982;2023-02-28T13:01:22;15.90;;;12.60;;
8044;SDS011;4065;48.754;9.982;2023-02-28T13:05:25;15.90;;;12.02;;
8044;SDS011;4065;48.754;9.982;2023-02-28T13:09:12;12.45;;;11.15;;
8044;SDS011;4065;48.754;9.982;2023-02-28T13:12:35;16.20;;;12.70;;
8044;SDS011;4065;48.754;9.982;2023-02-28T13:15:59;15.07;;;13.48;;
8044;SDS011;4065;48.754;9.982;2023-02-28T13:19:26;17.70;;;12.40;;
8044;SDS011;4065;48.754;9.982;2023-02-28T13:22:49;15.38;;;12.95;;
8044;SDS011;4065;48.754;9.982;2023-02-28T13:26:14;15.93;;;12.63;;
8044;SDS011;4065;48.754;9.982;2023-02-28T13:29:37;16.77;;;13.13;;
8044;SDS011;4065;48.754;9.982;2023-02-28T13:36:45;17.13;;;13.23;;
8044;SDS011;4065;48.754;9.982;2023-02-28T13:44:03;14.57;;;12.45;;
8044;SDS011;4065;48.754;9.982;2023-02-28T13:47:29;15.07;;;11.95;;
8044;SDS011;4065;48.754;9.982;2023-02-28T13:50:52;13.90;;;12.07;;
8044;SDS011;4065;48.754;9.982;2023-02-28T13:54:24;15.10;;;12.52;;
8044;SDS011;4065;48.754;9.982;2023-02-28T13:58:03;14.98;;;12.07;;
8044;SDS011;4065;48.754;9.982;2023-02-28T14:01:49;13.98;;;11.93;;
8044;SDS011;4065;48.754;9.982;2023-02-28T14:05:20;17.83;;;12.43;;
8044;SDS011;4065;48.754;9.982;2023-02-28T14:08:49;15.50;;;12.38;;
8044;SDS011;4065;48.754;9.982;2023-02-28T14:16:20;15.20;;;12.38;;
8044;SDS011;4065;48.754;9.982;2023-02-28T14:19:45;19.08;;;14.32;;
8044;SDS011;4065;48.754;9.982;2023-02-28T14:23:10;15.75;;;12.45;;
8044;SDS011;4065;48.754;9.982;2023-02-28T14:30:43;17.80;;;13.40;;
8044;SDS011;4065;48.754;9.982;2023-02-28T14:34:17;15.68;;;13.10;;
8044;SDS011;4065;48.754;9.982;2023-02-28T14:38:01;19.20;;;15.40;;
8044;SDS011;4065;48.754;9.982;2023-02-28T14:41:29;14.07;;;12.07;;
8044;SDS011;4065;48.754;9.982;2023-02-28T14:44:55;15.93;;;12.55;;
8044;SDS011;4065;48.754;9.982;2023-02-28T14:48:18;15.73;;;12.52;;
8044;SDS011;4065;48.754;9.982;2023-02-28T14:51:41;15.13;;;13.15;;
8044;SDS011;4065;48.754;9.982;2023-02-28T14:55:06;14.95;;;13.35;;
8044;SDS011;4065;48.754;9.982;2023-02-28T14:58:37;16.02;;;13.68;;
8044;SDS011;4065;48.754;9.982;2023-02-28T15:02:17;17.63;;;14.32;;
8044;SDS011;4065;48.754;9.982;2023-02-28T15:05:47;17.15;;;13.52;;
8044;SDS011;4065;48.754;9.982;2023-02-28T15:09:14;15.68;;;13.25;;
8044;SDS011;4065;48.754;9.982;2023-02-28T15:12:39;17.50;;;14.68;;
8044;SDS011;4065;48.754;9.982;2023-02-28T15:16:02;15.77;;;13.32;;
8044;SDS011;4065;48.754;9.982;2023-02-28T15:19:26;16.23;;;12.68;;
8044;SDS011;4065;48.754;9.982;2023-02-28T15:22:50;14.82;;;13.23;;
8044;SDS011;4065;48.754;9.982;2023-02-28T15:26:14;17.02;;;13.63;;
8044;SDS011;4065;48.754;9.982;2023-02-28T15:29:43;17.17;;;13.43;;
8044;SDS011;4065;48.754;9.982;2023-02-28T15:33:17;17.15;;;12.70;;
8044;SDS011;4065;48.754;9.982;2023-02-28T15:36:40;18.63;;;15.13;;
8044;SDS011;4065;48.754;9.982;2023-02-28T15:40:10;17.70;;;14.55;;
8044;SDS011;4065;48.754;9.982;2023-02-28T15:43:36;17.83;;;13.32;;
8044;SDS011;4065;48.754;9.982;2023-02-28T15:47:01;16.98;;;14.68;;
8044;SDS011;4065;48.754;9.982;2023-02-28T15:50:27;16.33;;;13.20;;
8044;SDS011;4065;48.754;9.982;2023-02-28T15:53:50;19.30;;;14.93;;
8044;SDS011;4065;48.754;9.982;2023-02-28T15:57:14;19.02;;;13.90;;
8044;SDS011;4065;48.754;9.982;2023-02-28T16:00:39;14.70;;;13.15;;
8044;SDS011;4065;48.754;9.982;2023-02-28T16:04:03;21.60;;;14.95;;
8044;SDS011;4065;48.754;9.982;2023-02-28T16:07:29;17.10;;;14.27;;
8044;SDS011;4065;48.754;9.982;2023-02-28T16:10:53;17.13;;;14.70;;
8044;SDS011;4065;48.754;9.982;2023-02-28T16:14:17;19.52;;;14.80;;
8044;SDS011;4065;48.754;9.982;2023-02-28T16:17:40;17.40;;;14.40;;
8044;SDS011;4065;48.754;9.982;2023-02-28T16:21:04;42.13;;;27.05;;
8044;SDS011;4065;48.754;9.982;2023-02-28T16:24:26;22.42;;;17.02;;
8044;SDS011;4065;48.754;9.982;2023-02-28T16:27:49;15.80;;;14.02;;
8044;SDS011;4065;48.754;9.982;2023-02-28T16:31:14;19.48;;;15.43;;
8044;SDS011;4065;48.754;9.982;2023-02-28T16:34:36;19.45;;;14.98;;
8044;SDS011;4065;48.754;9.982;2023-02-28T16:38:00;19.85;;;14.98;;
8044;SDS011;4065;48.754;9.982;2023-02-28T16:41:23;17.70;;;15.27;;
8044;SDS011;4065;48.754;9.982;2023-02-28T16:44:49;18.90;;;14.27;;
8044;SDS011;4065;48.754;9.982;2023-02-28T16:48:11;19.05;;;14.50;;
8044;SDS011;4065;48.754;9.982;2023-02-28T16:51:35;17.90;;;15.30;;
8044;SDS011;4065;48.754;9.982;2023-02-28T16:54:58;20.85;;;15.88;;
8044;SDS011;4065;48.754;9.982;2023-02-28T16:58:20;22.77;;;18.00;;
8044;SDS011;4065;48.754;9.982;2023-02-28T17:01:45;22.00;;;17.88;;
8044;SDS011;4065;48.754;9.982;2023-02-28T17:05:08;22.02;;;16.42;;
8044;SDS011;4065;48.754;9.982;2023-02-28T17:08:32;21.20;;;16.55;;
8044;SDS011;4065;48.754;9.982;2023-02-28T17:11:56;20.98;;;15.70;;
8044;SDS011;4065;48.754;9.982;2023-02-28T17:15:18;18.98;;;15.52;;
8044;SDS011;4065;48.754;9.982;2023-02-28T17:18:41;18.00;;;15.13;;
8044;SDS011;4065;48.754;9.982;2023-02-28T17:22:03;20.90;;;16.20;;
8044;SDS011;4065;48.754;9.982;2023-02-28T17:25:25;20.08;;;15.50;;
8044;SDS011;4065;48.754;9.982;2023-02-28T17:28:48;23.13;;;16.50;;
8044;SDS011;4065;48.754;9.982;2023-02-28T17:32:11;19.77;;;16.15;;
8044;SDS011;4065;48.754;9.982;2023-02-28T17:35:33;21.02;;;16.65;;
8044;SDS011;4065;48.754;9.982;2023-02-28T17:38:55;22.77;;;18.73;;
8044;SDS011;4065;48.754;9.982;2023-02-28T17:42:18;20.77;;;16.38;;
8044;SDS011;4065;48.754;9.982;2023-02-28T17:45:42;23.92;;;19.70;;
8044;SDS011;4065;48.754;9.982;2023-02-28T17:49:04;18.55;;;15.95;;
8044;SDS011;4065;48.754;9.982;2023-02-28T17:52:26;21.55;;;16.38;;
8044;SDS011;4065;48.754;9.982;2023-02-28T17:55:49;20.67;;;16.42;;
8044;SDS011;4065;48.754;9.982;2023-02-28T17:59:11;22.73;;;16.73;;
8044;SDS011;4065;48.754;9.982;2023-02-28T18:02:35;23.48;;;16.80;;
8044;SDS011;4065;48.754;9.982;2023-02-28T18:05:57;23.10;;;17.83;;
8044;SDS011;4065;48.754;9.982;2023-02-28T18:09:20;24.83;;;17.65;;
8044;SDS011;4065;48.754;9.982;2023-02-28T18:12:43;23.95;;;17.58;;
8044;SDS011;4065;48.754;9.982;2023-02-28T18:16:05;19.02;;;15.88;;
8044;SDS011;4065;48.754;9.982;2023-02-28T18:19:28;21.75;;;17.27;;
8044;SDS011;4065;48.754;9.982;2023-02-28T18:22:50;21.75;;;17.52;;
8044;SDS011;4065;48.754;9.982;2023-02-28T18:26:16;22.65;;;17.60;;
8044;SDS011;4065;48.754;9.982;2023-02-28T18:29:39;23.23;;;17.52;;
8044;SDS011;4065;48.754;9.982;2023-02-28T18:33:01;25.65;;;18.23;;
8044;SDS011;4065;48.754;9.982;2023-02-28T18:36:25;23.48;;;17.40;;
8044;SDS011;4065;48.754;9.982;2023-02-28T18:39:47;25.02;;;18.52;;
8044;SDS011;4065;48.754;9.982;2023-02-28T18:43:10;25.33;;;16.88;;
8044;SDS011;4065;48.754;9.982;2023-02-28T18:46:32;24.98;;;17.50;;
8044;SDS011;4065;48.754;9.982;2023-02-28T18:49:54;26.25;;;18.90;;
8044;SDS011;4065;48.754;9.982;2023-02-28T18:53:17;28.23;;;17.58;;
8044;SDS011;4065;48.754;9.982;2023-02-28T18:56:39;27.80;;;18.75;;
8044;SDS011;4065;48.754;9.982;2023-02-28T19:00:02;24.70;;;17.80;;
8044;SDS011;4065;48.754;9.982;2023-02-28T19:03:24;24.00;;;18.38;;
8044;SDS011;4065;48.754;9.982;2023-02-28T19:06:46;24.20;;;18.20;;
8044;SDS011;4065;48.754;9.982;2023-02-28T19:10:10;23.67;;;17.35;;
8044;SDS011;4065;48.754;9.982;2023-02-28T19:13:35;23.33;;;18.33;;
8044;SDS011;4065;48.754;9.982;2023-02-28T19:16:57;27.75;;;17.95;;
8044;SDS011;4065;48.754;9.982;2023-02-28T19:20:19;26.80;;;18.55;;
8044;SDS011;4065;48.754;9.982;2023-02-28T19:23:41;25.58;;;18.08;;
8044;SDS011;4065;48.754;9.982;2023-02-28T19:27:06;23.75;;;17.38;;
8044;SDS011;4065;48.754;9.982;2023-02-28T19:30:28;20.98;;;16.10;;
8044;SDS011;4065;48.754;9.982;2023-02-28T19:33:53;23.65;;;17.30;;
8044;SDS011;4065;48.754;9.982;2023-02-28T19:37:16;23.83;;;17.75;;
8044;SDS011;4065;48.754;9.982;2023-02-28T19:40:39;23.40;;;17.98;;
8044;SDS011;4065;48.754;9.982;2023-02-28T19:44:02;25.02;;;17.00;;
8044;SDS011;4065;48.754;9.982;2023-02-28T19:47:24;22.05;;;16.30;;
8044;SDS011;4065;48.754;9.982;2023-02-28T19:50:46;23.38;;;16.80;;
8044;SDS011;4065;48.754;9.982;2023-02-28T19:54:08;24.83;;;18.10;;
8044;SDS011;4065;48.754;9.982;2023-02-28T19:57:31;23.20;;;17.05;;
8044;SDS011;4065;48.754;9.982;2023-02-28T20:00:54;29.05;;;19.98;;
8044;SDS011;4065;48.754;9.982;2023-02-28T20:04:16;20.27;;;16.55;;
8044;SDS011;4065;48.754;9.982;2023-02-28T20:07:38;23.77;;;17.40;;
8044;SDS011;4065;48.754;9.982;2023-02-28T20:11:03;24.00;;;18.25;;
8044;SDS011;4065;48.754;9.982;2023-02-28T20:14:27;25.30;;;18.67;;
8044;SDS011;4065;48.754;9.982;2023-02-28T20:17:50;25.48;;;17.90;;
8044;SDS011;4065;48.754;9.982;2023-02-28T20:21:12;24.65;;;17.65;;
8044;SDS011;4065;48.754;9.982;2023-02-28T20:24:38;20.75;;;16.70;;
8044;SDS011;4065;48.754;9.982;2023-02-28T20:28:01;24.27;;;17.65;;
8044;SDS011;4065;48.754;9.982;2023-02-28T20:31:24;22.30;;;16.65;;
8044;SDS011;4065;48.754;9.982;2023-02-28T20:34:47;28.10;;;19.50;;
8044;SDS011;4065;48.754;9.982;2023-02-28T20:38:09;30.42;;;20.92;;
8044;SDS011;4065;48.754;9.982;2023-02-28T20:41:32;30.55;;;22.25;;
8044;SDS011;4065;48.754;9.982;2023-02-28T20:44:55;25.48;;;19.65;;
8044;SDS011;4065;48.754;9.982;2023-02-28T20:48:17;26.63;;;19.75;;
8044;SDS011;4065;48.754;9.982;2023-02-28T20:51:40;26.23;;;19.88;;
8044;SDS011;4065;48.754;9.982;2023-02-28T20:55:03;25.52;;;18.33;;
8044;SDS011;4065;48.754;9.982;2023-02-28T20:58:26;26.23;;;18.40;;